Time;durP1;ratioP1;P1;durP2;ratioP2;P2;SDS_P1;SDS_P2;PMS_P1;PMS_P2;Temp;Humidity;BMP_temperature;BMP_pressure;BME280_temperature;BME280_humidity;BME280_pressure;Samples;Min_cycle;Max_cycle;Signal;HPM_P1;HPM_P2
2023/09/21 00:00:13;;;;;;;17.27;5.75;;;24.90;72.30;;;;;;5115575;28;20193;-71
2023/09/21 00:02:41;;;;;;;13.57;5.28;;;24.90;72.30;;;;;;5097365;28;20080;-72
2023/09/21 00:05:09;;;;;;;19.27;6.72;;;24.80;72.40;;;;;;5115982;28;20028;-73
2023/09/21 00:07:36;;;;;;;19.63;5.80;;;24.80;72.50;;;;;;5122932;22;20347;-71
2023/09/21 00:10:06;;;;;;;18.67;7.18;;;24.80;72.80;;;;;;5115694;28;20030;-72
2023/09/21 00:12:34;;;;;;;24.20;7.25;;;24.80;72.90;;;;;;5115780;28;20031;-72
2023/09/21 00:15:20;;;;;;;12.98;6.63;;;24.80;73.10;;;;;;5115944;28;20035;-72
2023/09/21 00:17:47;;;;;;;19.38;7.00;;;24.80;73.20;;;;;;5115746;28;20028;-72
2023/09/21 00:20:30;;;;;;;14.23;7.05;;;24.80;73.20;;;;;;5115807;28;20035;-72
2023/09/21 00:22:56;;;;;;;20.80;7.57;;;24.80;73.30;;;;;;5096967;28;20032;-70
2023/09/21 00:25:26;;;;;;;22.85;8.35;;;24.80;73.60;;;;;;5115145;28;20399;-72
2023/09/21 00:27:51;;;;;;;19.25;7.75;;;24.70;73.60;;;;;;5115344;28;20051;-72
2023/09/21 00:30:17;;;;;;;18.20;8.15;;;24.80;73.60;;;;;;5115286;28;20070;-72
2023/09/21 00:32:43;;;;;;;22.85;8.32;;;24.80;73.80;;;;;;5115045;28;20032;-72
2023/09/21 00:35:10;;;;;;;24.50;9.32;;;24.80;73.90;;;;;;5115242;28;20039;-71
2023/09/21 00:37:38;;;;;;;21.75;9.38;;;24.80;74.00;;;;;;5096656;28;20544;-72
2023/09/21 00:40:24;;;;;;;17.52;9.55;;;24.80;74.40;;;;;;5096631;28;20071;-72
2023/09/21 00:42:53;;;;;;;17.75;8.35;;;24.80;74.30;;;;;;5114421;28;20032;-71
2023/09/21 00:45:22;;;;;;;26.02;9.05;;;24.80;74.90;;;;;;5114753;28;20038;-70
2023/09/21 00:47:52;;;;;;;18.23;10.40;;;24.80;74.90;;;;;;5114720;28;20032;-72
2023/09/21 00:50:21;;;;;;;15.90;10.07;;;24.90;75.10;;;;;;5114630;28;20056;-72
2023/09/21 00:52:51;;;;;;;16.88;9.35;;;24.90;75.30;;;;;;5114801;28;20063;-72
2023/09/21 00:55:23;;;;;;;25.75;11.00;;;25.00;75.30;;;;;;5096017;28;20126;-72
2023/09/21 00:57:57;;;;;;;24.15;11.07;;;25.00;75.70;;;;;;5114554;28;20028;-72
2023/09/21 01:00:27;;;;;;;17.23;8.98;;;24.90;76.40;;;;;;5114427;28;20395;-72
2023/09/21 01:02:55;;;;;;;17.17;8.70;;;24.90;76.10;;;;;;5095828;28;20399;-71
2023/09/21 01:05:22;;;;;;;17.27;8.55;;;24.90;76.00;;;;;;5113707;28;20054;-72
2023/09/21 01:07:50;;;;;;;18.98;8.90;;;24.90;75.90;;;;;;5113627;28;20119;-72
2023/09/21 01:10:19;;;;;;;13.00;7.18;;;25.00;75.90;;;;;;5113208;28;20106;-71
2023/09/21 01:12:49;;;;;;;15.45;7.88;;;25.00;75.50;;;;;;5110042;28;20157;-72
2023/09/21 01:15:15;;;;;;;15.63;7.88;;;25.00;75.50;;;;;;5112723;28;20040;-71
2023/09/21 01:17:41;;;;;;;22.48;6.90;;;25.00;75.40;;;;;;5112968;28;20020;-73
2023/09/21 01:20:29;;;;;;;13.65;6.95;;;25.10;75.10;;;;;;5113111;28;20372;-71
2023/09/21 01:23:14;;;;;;;20.50;7.30;;;25.10;74.90;;;;;;5113037;28;20099;-72
2023/09/21 01:25:46;;;;;;;18.92;7.55;;;25.10;74.90;;;;;;5112948;28;20035;-72
2023/09/21 01:28:17;;;;;;;15.98;7.25;;;25.10;74.70;;;;;;5112943;28;20116;-72
2023/09/21 01:30:43;;;;;;;17.92;6.53;;;25.10;74.40;;;;;;5112500;28;20273;-71
2023/09/21 01:33:11;;;;;;;12.70;5.95;;;25.10;74.10;;;;;;5112928;28;20067;-71
2023/09/21 01:35:38;;;;;;;14.05;6.03;;;25.00;73.80;;;;;;5113242;28;20096;-72
2023/09/21 01:38:06;;;;;;;13.23;6.85;;;25.10;73.70;;;;;;5094579;28;20390;-71
2023/09/21 01:40:34;;;;;;;16.17;5.93;;;25.10;73.70;;;;;;5113252;28;20027;-72
2023/09/21 01:43:05;;;;;;;12.20;5.70;;;25.10;73.70;;;;;;5112534;28;20050;-72
2023/09/21 01:45:30;;;;;;;17.65;6.72;;;25.10;73.70;;;;;;5112973;28;20351;-72
2023/09/21 01:47:56;;;;;;;8.85;5.38;;;25.00;73.70;;;;;;5112735;28;20131;-73
2023/09/21 01:50:22;;;;;;;13.27;5.85;;;25.00;73.70;;;;;;5112550;28;20482;-72
2023/09/21 01:52:48;;;;;;;14.88;5.95;;;25.10;73.90;;;;;;5112126;28;20118;-71
2023/09/21 01:55:16;;;;;;;16.52;6.05;;;25.00;73.80;;;;;;5112553;28;20040;-72
2023/09/21 01:57:43;;;;;;;15.55;5.35;;;25.10;74.30;;;;;;5112462;28;20119;-72
2023/09/21 02:00:12;;;;;;;13.85;6.40;;;25.00;74.50;;;;;;5094089;28;20390;-72
2023/09/21 02:02:39;;;;;;;15.60;6.28;;;25.00;74.60;;;;;;5112492;28;20047;-72
2023/09/21 02:05:09;;;;;;;18.58;6.25;;;25.00;74.60;;;;;;5112452;28;20436;-72
2023/09/21 02:07:35;;;;;;;17.63;6.30;;;25.00;74.80;;;;;;5060207;28;1478934;-72
2023/09/21 02:10:09;;;;;;;17.17;6.50;;;25.00;75.00;;;;;;5113013;28;20043;-71
2023/09/21 02:12:39;;;;;;;12.52;5.57;;;25.00;74.90;;;;;;5112861;28;20036;-71
2023/09/21 02:15:12;;;;;;;13.95;5.63;;;25.00;75.10;;;;;;5112971;28;20371;-72
2023/09/21 02:17:41;;;;;;;14.32;6.30;;;25.00;75.00;;;;;;5112647;28;20110;-70
2023/09/21 02:20:13;;;;;;;10.57;5.55;;;25.00;75.10;;;;;;5094085;28;20027;-71
2023/09/21 02:22:46;;;;;;;12.15;5.35;;;25.10;74.90;;;;;;5112681;28;20030;-71
2023/09/21 02:25:13;;;;;;;16.10;6.05;;;25.00;74.70;;;;;;5112448;28;20185;-71
2023/09/21 02:27:40;;;;;;;18.02;5.50;;;25.10;74.40;;;;;;5112246;28;20497;-72
2023/09/21 02:30:12;;;;;;;13.00;5.53;;;25.10;74.20;;;;;;5112334;28;20055;-72
2023/09/21 02:32:39;;;;;;;13.52;5.22;;;25.10;73.80;;;;;;5112477;28;20486;-73
2023/09/21 02:35:07;;;;;;;13.30;5.57;;;25.10;73.60;;;;;;5112372;28;20039;-72
2023/09/21 02:37:35;;;;;;;15.90;5.22;;;25.10;73.30;;;;;;5112328;28;20073;-72
2023/09/21 02:40:01;;;;;;;13.07;5.22;;;25.20;73.00;;;;;;5112437;28;20028;-71
2023/09/21 02:42:28;;;;;;;10.50;5.03;;;25.20;72.70;;;;;;5112096;28;20475;-72
2023/09/21 02:44:55;;;;;;;14.25;5.55;;;25.30;72.60;;;;;;5112236;28;20038;-73
2023/09/21 02:47:21;;;;;;;14.98;5.00;;;25.30;72.40;;;;;;5112535;28;20020;-72
2023/09/21 02:49:47;;;;;;;14.43;5.32;;;25.30;72.60;;;;;;5112357;28;20130;-71
2023/09/21 02:52:15;;;;;;;13.93;5.00;;;25.30;72.70;;;;;;5112274;28;20055;-73
2023/09/21 02:54:41;;;;;;;17.27;5.43;;;25.30;72.70;;;;;;5112416;28;20050;-72
2023/09/21 02:57:07;;;;;;;11.63;5.10;;;25.20;72.80;;;;;;5112172;28;20348;-70
2023/09/21 02:59:34;;;;;;;17.63;4.90;;;25.20;73.30;;;;;;5111829;28;20498;-72
2023/09/21 03:02:00;;;;;;;8.70;4.78;;;25.20;73.40;;;;;;5093774;28;20487;-72
2023/09/21 03:04:26;;;;;;;17.02;5.63;;;25.20;73.70;;;;;;5111825;28;20096;-72
2023/09/21 03:06:55;;;;;;;18.20;5.38;;;25.20;73.90;;;;;;5093545;28;20031;-72
2023/09/21 03:09:22;;;;;;;15.30;5.82;;;25.20;74.30;;;;;;5112061;28;20051;-71
2023/09/21 03:11:48;;;;;;;17.08;5.72;;;25.20;74.80;;;;;;5111880;28;20036;-72
2023/09/21 03:14:14;;;;;;;19.95;5.65;;;25.20;75.40;;;;;;5112155;28;20475;-72
2023/09/21 03:16:44;;;;;;;17.20;5.63;;;25.10;75.50;;;;;;5093899;28;20479;-72
2023/09/21 03:19:10;;;;;;;14.07;5.50;;;25.20;76.00;;;;;;5093543;28;20114;-72
2023/09/21 03:21:35;;;;;;;14.73;5.53;;;25.10;76.70;;;;;;5112117;28;20028;-73
2023/09/21 03:24:02;;;;;;;18.65;5.93;;;25.10;76.40;;;;;;5112075;28;20080;-72
2023/09/21 03:26:28;;;;;;;14.25;5.38;;;25.10;76.40;;;;;;5111724;28;20138;-72
2023/09/21 03:28:54;;;;;;;15.73;5.93;;;25.10;76.70;;;;;;5097579;28;20032;-71
2023/09/21 03:31:20;;;;;;;17.75;5.57;;;25.10;76.90;;;;;;5116138;28;20031;-71
2023/09/21 03:33:47;;;;;;;14.93;5.55;;;25.10;76.90;;;;;;5097515;28;20031;-72
2023/09/21 03:36:16;;;;;;;19.20;5.85;;;25.00;76.90;;;;;;5115694;28;20028;-72
2023/09/21 03:38:42;;;;;;;15.90;5.50;;;25.10;77.20;;;;;;5115805;28;20055;-72
2023/09/21 03:41:08;;;;;;;15.95;5.60;;;25.00;77.00;;;;;;5115658;28;20102;-72
2023/09/21 03:43:33;;;;;;;15.50;5.78;;;25.00;76.90;;;;;;5115823;28;20050;-71
2023/09/21 03:45:59;;;;;;;13.70;5.13;;;25.10;77.20;;;;;;5115984;28;20490;-72
2023/09/21 03:48:25;;;;;;;15.38;5.68;;;25.10;77.00;;;;;;5115821;28;20047;-72
2023/09/21 03:50:52;;;;;;;13.27;5.65;;;25.10;76.90;;;;;;5116126;28;20027;-72
2023/09/21 03:53:17;;;;;;;14.45;5.30;;;25.10;76.90;;;;;;5116116;28;20024;-72
2023/09/21 03:55:46;;;;;;;15.25;5.22;;;25.10;76.50;;;;;;5115074;28;20402;-71
2023/09/21 03:58:12;;;;;;;15.35;5.55;;;25.10;76.50;;;;;;5115474;28;20030;-72
2023/09/21 04:00:38;;;;;;;16.17;5.13;;;25.20;76.30;;;;;;5115367;28;20119;-72
2023/09/21 04:03:11;;;;;;;15.30;5.65;;;25.20;76.20;;;;;;5115590;28;20538;-71
2023/09/21 04:05:39;;;;;;;16.73;5.60;;;25.30;76.60;;;;;;5115434;28;20346;-71
2023/09/21 04:08:05;;;;;;;12.07;5.97;;;25.20;75.80;;;;;;5115126;28;20458;-72
2023/09/21 04:10:32;;;;;;;14.00;5.40;;;25.20;75.80;;;;;;5115589;28;20089;-72
2023/09/21 04:12:58;;;;;;;18.60;5.65;;;25.30;75.60;;;;;;5115308;28;20061;-71
2023/09/21 04:15:28;;;;;;;16.20;5.00;;;25.30;75.40;;;;;;5115223;28;20114;-72
2023/09/21 04:17:55;;;;;;;15.05;5.15;;;25.30;75.70;;;;;;5115409;28;20106;-71
2023/09/21 04:20:22;;;;;;;15.95;5.10;;;25.30;74.90;;;;;;5115105;28;20062;-71
2023/09/21 04:22:53;;;;;;;11.90;4.53;;;25.20;74.50;;;;;;5114766;28;20490;-72
2023/09/21 04:25:19;;;;;;;12.10;5.00;;;25.20;74.50;;;;;;5114996;28;20036;-70
2023/09/21 04:27:47;;;;;;;12.75;4.72;;;25.20;74.20;;;;;;5114940;28;20035;-71
2023/09/21 04:30:17;;;;;;;11.00;4.65;;;25.20;73.90;;;;;;5115020;28;20093;-72
2023/09/21 04:32:46;;;;;;;11.57;4.57;;;25.20;73.50;;;;;;5115252;28;20078;-72
2023/09/21 04:35:14;;;;;;;14.85;4.97;;;25.20;73.30;;;;;;5114545;28;20047;-71
2023/09/21 04:37:43;;;;;;;12.52;4.82;;;25.20;73.20;;;;;;5114853;28;20027;-72
2023/09/21 04:40:11;;;;;;;14.55;5.07;;;25.20;73.00;;;;;;5113666;28;20118;-72
2023/09/21 04:42:38;;;;;;;14.20;4.65;;;25.20;72.70;;;;;;5114757;28;20069;-72
2023/09/21 04:45:09;;;;;;;11.38;4.75;;;25.20;72.70;;;;;;5115019;28;20150;-72
2023/09/21 04:47:39;;;;;;;15.45;4.45;;;25.20;72.20;;;;;;5114460;28;20032;-72
2023/09/21 04:50:05;;;;;;;10.70;4.18;;;25.20;72.70;;;;;;5096116;28;20403;-72
2023/09/21 04:52:33;;;;;;;14.68;5.05;;;25.20;72.60;;;;;;5096157;28;20046;-72
2023/09/21 04:54:59;;;;;;;17.40;5.78;;;25.10;72.80;;;;;;5114479;28;20211;-71
2023/09/21 04:57:27;;;;;;;13.95;5.00;;;25.10;72.90;;;;;;5114472;28;20062;-73
2023/09/21 04:59:54;;;;;;;17.83;4.70;;;25.00;72.70;;;;;;5114418;28;20104;-73
2023/09/21 05:02:20;;;;;;;18.25;4.30;;;25.00;72.80;;;;;;5114238;28;20034;-72
2023/09/21 05:04:46;;;;;;;13.18;4.25;;;25.00;72.90;;;;;;5114325;28;20027;-72
2023/09/21 05:07:14;;;;;;;15.85;4.97;;;25.00;72.80;;;;;;5114553;28;20050;-72
2023/09/21 05:09:40;;;;;;;15.52;4.68;;;25.00;72.50;;;;;;5114192;28;20036;-73
2023/09/21 05:12:06;;;;;;;19.20;5.40;;;25.00;72.30;;;;;;5114278;28;20039;-72
2023/09/21 05:14:33;;;;;;;15.38;4.72;;;25.00;72.10;;;;;;5096049;28;20491;-72
2023/09/21 05:16:59;;;;;;;20.55;5.60;;;24.90;71.80;;;;;;5114285;28;20071;-73
2023/09/21 05:19:26;;;;;;;14.85;4.20;;;24.90;71.60;;;;;;5114032;28;20096;-73
2023/09/21 05:21:56;;;;;;;18.02;4.30;;;24.90;71.30;;;;;;5113882;28;20515;-72
2023/09/21 05:24:23;;;;;;;10.88;3.53;;;24.80;70.90;;;;;;5095287;28;20395;-73
2023/09/21 05:26:49;;;;;;;12.35;3.63;;;24.80;70.70;;;;;;5113972;28;20024;-71
2023/09/21 05:29:16;;;;;;;10.52;3.60;;;24.80;70.20;;;;;;5114228;28;20034;-72
2023/09/21 05:31:41;;;;;;;14.25;4.00;;;24.80;70.10;;;;;;5114200;28;20028;-73
2023/09/21 05:34:07;;;;;;;12.75;4.03;;;24.80;70.00;;;;;;5095263;28;20123;-72
2023/09/21 05:36:33;;;;;;;10.02;4.03;;;24.80;69.90;;;;;;5113804;28;20027;-72
2023/09/21 05:39:01;;;;;;;10.35;3.42;;;24.80;69.90;;;;;;5113566;28;20157;-73
2023/09/21 05:41:27;;;;;;;12.52;3.83;;;24.80;69.80;;;;;;5113864;28;20027;-73
2023/09/21 05:43:53;;;;;;;10.00;3.10;;;24.80;69.60;;;;;;5113514;28;20028;-71
2023/09/21 05:46:19;;;;;;;12.60;3.55;;;24.80;69.50;;;;;;5113475;28;20424;-73
2023/09/21 05:48:45;;;;;;;10.25;2.97;;;24.80;69.50;;;;;;5113186;28;20028;-73
2023/09/21 05:51:12;;;;;;;12.20;3.60;;;24.80;69.00;;;;;;5113215;28;20164;-76
2023/09/21 05:53:38;;;;;;;11.70;3.22;;;24.80;69.40;;;;;;5113463;28;20459;-73
2023/09/21 05:56:04;;;;;;;12.07;3.40;;;24.90;68.60;;;;;;5113297;28;20494;-80
2023/09/21 05:58:30;;;;;;;13.80;4.88;;;24.80;68.30;;;;;;5113435;28;20038;-79
2023/09/21 06:00:59;;;;;;;12.98;4.78;;;24.90;68.40;;;;;;5095054;28;20059;-75
2023/09/21 06:03:27;;;;;;;13.38;3.78;;;24.90;68.20;;;;;;5095004;28;20040;-71
2023/09/21 06:05:54;;;;;;;11.38;3.15;;;24.90;68.10;;;;;;5113255;28;20032;-76
2023/09/21 06:08:19;;;;;;;9.73;3.17;;;24.90;68.00;;;;;;5094536;28;20051;-72
2023/09/21 06:10:46;;;;;;;12.10;3.38;;;25.00;67.90;;;;;;5113186;28;20135;-73
2023/09/21 06:13:12;;;;;;;11.82;2.90;;;25.00;67.40;;;;;;5113057;28;20038;-74
2023/09/21 06:15:48;;;;;;;9.82;2.90;;;25.00;67.30;;;;;;5094626;28;20344;-73
2023/09/21 06:18:17;;;;;;;11.40;3.28;;;25.10;67.20;;;;;;5113213;28;20035;-78
2023/09/21 06:20:43;;;;;;;12.38;3.50;;;25.10;67.20;;;;;;5112820;28;20570;-73
2023/09/21 06:23:09;;;;;;;10.70;3.25;;;25.20;67.50;;;;;;5112275;28;20032;-72
2023/09/21 06:25:35;;;;;;;9.73;2.92;;;25.20;67.30;;;;;;5111265;28;20448;-73
2023/09/21 06:28:02;;;;;;;14.88;3.75;;;25.30;67.40;;;;;;5111943;28;20039;-74
2023/09/21 06:30:28;;;;;;;12.63;3.10;;;25.40;66.90;;;;;;5111853;28;20027;-73
2023/09/21 06:32:55;;;;;;;9.38;3.17;;;25.50;66.40;;;;;;5111307;28;20043;-74
2023/09/21 06:35:24;;;;;;;17.02;3.38;;;25.70;66.20;;;;;;5111787;28;20040;-74
2023/09/21 06:37:56;;;;;;;12.48;3.10;;;25.90;66.10;;;;;;5093182;28;20027;-74
2023/09/21 06:40:25;;;;;;;8.23;2.83;;;25.90;65.80;;;;;;5112596;28;20572;-74
2023/09/21 06:42:51;;;;;;;11.30;3.17;;;26.00;65.60;;;;;;5112317;28;20543;-71
2023/09/21 06:45:18;;;;;;;15.30;3.88;;;26.20;65.30;;;;;;5094013;28;20488;-74
2023/09/21 06:47:47;;;;;;;13.98;3.28;;;26.40;65.00;;;;;;5111393;28;20339;-74
2023/09/21 06:50:14;;;;;;;20.73;5.43;;;26.50;65.00;;;;;;5110743;28;20047;-73
2023/09/21 06:52:40;;;;;;;35.67;7.97;;;26.50;64.80;;;;;;5111935;28;20037;-74
2023/09/21 06:55:07;;;;;;;22.88;5.22;;;26.40;65.10;;;;;;5112016;28;20436;-73
2023/09/21 06:57:34;;;;;;;12.15;4.00;;;26.40;65.20;;;;;;5112155;28;20034;-73
2023/09/21 07:00:01;;;;;;;23.92;5.65;;;26.30;64.90;;;;;;5111892;28;20055;-73
2023/09/21 07:02:28;;;;;;;14.73;5.05;;;26.20;65.60;;;;;;5111508;28;20027;-73
2023/09/21 07:04:54;;;;;;;18.60;5.00;;;26.10;65.70;;;;;;5111908;28;20475;-73
2023/09/21 07:07:21;;;;;;;13.52;3.25;;;26.10;66.00;;;;;;5111592;28;20050;-73
2023/09/21 07:09:47;;;;;;;13.02;3.72;;;26.10;66.10;;;;;;5112091;28;20067;-74
2023/09/21 07:12:12;;;;;;;17.20;4.93;;;26.10;66.00;;;;;;5112052;28;20074;-73
2023/09/21 07:14:39;;;;;;;16.00;4.30;;;26.10;66.10;;;;;;5111524;28;20069;-73
2023/09/21 07:17:05;;;;;;;15.65;4.57;;;26.20;66.20;;;;;;5111470;28;20061;-74
2023/09/21 07:19:31;;;;;;;12.80;3.88;;;26.30;66.20;;;;;;5111973;28;20043;-73
2023/09/21 07:21:58;;;;;;;15.18;4.60;;;26.30;66.10;;;;;;5111620;28;20613;-73
2023/09/21 07:24:23;;;;;;;19.55;6.82;;;26.30;66.20;;;;;;5111963;28;20036;-74
2023/09/21 07:26:49;;;;;;;22.05;7.60;;;26.40;66.00;;;;;;5093496;28;20460;-72
2023/09/21 07:29:17;;;;;;;21.70;6.35;;;26.40;66.30;;;;;;5111637;28;20102;-73
2023/09/21 07:31:43;;;;;;;23.25;5.43;;;26.40;66.40;;;;;;5111900;28;20190;-73
2023/09/21 07:34:09;;;;;;;36.03;10.45;;;26.30;66.40;;;;;;5111297;28;20047;-72
2023/09/21 07:36:36;;;;;;;20.33;5.63;;;26.30;66.80;;;;;;5111455;28;20038;-72
2023/09/21 07:39:03;;;;;;;22.50;6.30;;;26.20;66.80;;;;;;5111588;28;20032;-72
2023/09/21 07:41:29;;;;;;;22.25;4.05;;;26.10;66.70;;;;;;5111506;28;20031;-72
2023/09/21 07:43:55;;;;;;;16.20;4.97;;;26.10;67.10;;;;;;5111358;28;20036;-72
2023/09/21 07:46:21;;;;;;;16.73;4.85;;;26.10;67.30;;;;;;5111770;28;20542;-74
2023/09/21 07:48:49;;;;;;;20.67;5.47;;;26.10;67.20;;;;;;5111397;28;20061;-72
2023/09/21 07:51:16;;;;;;;23.77;6.13;;;26.10;67.40;;;;;;5111310;28;20103;-72
2023/09/21 07:53:43;;;;;;;22.38;6.13;;;26.10;67.60;;;;;;5111256;28;20114;-72
2023/09/21 07:56:12;;;;;;;30.08;7.15;;;26.10;67.50;;;;;;5092848;28;20435;-74
2023/09/21 07:58:38;;;;;;;26.23;8.02;;;26.10;67.40;;;;;;5111199;28;20500;-73
2023/09/21 08:01:04;;;;;;;21.88;7.13;;;26.10;67.30;;;;;;5092736;28;20384;-72
2023/09/21 08:03:31;;;;;;;18.98;4.85;;;26.20;67.30;;;;;;5092853;28;20040;-75
2023/09/21 08:05:57;;;;;;;18.45;5.05;;;26.10;67.30;;;;;;5110961;28;20088;-72
2023/09/21 08:08:25;;;;;;;25.25;6.65;;;26.10;67.10;;;;;;5111087;28;20051;-73
2023/09/21 08:10:52;;;;;;;21.08;6.75;;;26.10;67.40;;;;;;5111180;28;20391;-73
2023/09/21 08:13:20;;;;;;;22.58;5.82;;;26.10;68.00;;;;;;5094069;28;20066;-73
2023/09/21 08:15:46;;;;;;;21.63;5.28;;;26.10;68.10;;;;;;5115078;28;20040;-73
2023/09/21 08:18:13;;;;;;;19.23;4.38;;;26.10;68.10;;;;;;5114817;28;20463;-73
2023/09/21 08:20:42;;;;;;;13.93;5.35;;;26.10;68.10;;;;;;5114890;28;20024;-73
2023/09/21 08:23:08;;;;;;;20.77;5.93;;;26.10;68.10;;;;;;5096614;28;20028;-76
2023/09/21 08:25:37;;;;;;;20.65;6.07;;;26.10;68.50;;;;;;5115110;28;20051;-76
2023/09/21 08:28:04;;;;;;;19.92;5.93;;;26.10;68.50;;;;;;5096786;28;20066;-75
2023/09/21 08:30:31;;;;;;;45.17;7.35;;;26.20;68.70;;;;;;5114752;28;20035;-72
2023/09/21 08:32:57;;;;;;;341.30;36.70;;;26.20;68.90;;;;;;5114549;28;20031;-72
2023/09/21 08:35:24;;;;;;;40.17;10.15;;;26.30;68.90;;;;;;5096002;28;20043;-71
2023/09/21 08:37:50;;;;;;;31.63;6.90;;;26.30;68.50;;;;;;5114256;28;20050;-71
2023/09/21 08:40:21;;;;;;;23.65;6.05;;;26.30;68.40;;;;;;5095938;28;20067;-71
2023/09/21 08:42:52;;;;;;;19.00;5.03;;;26.30;68.20;;;;;;5114807;28;20036;-70
2023/09/21 08:45:19;;;;;;;122.32;12.32;;;26.40;68.20;;;;;;5114519;28;20035;-71
2023/09/21 08:47:46;;;;;;;35.17;6.35;;;26.40;68.10;;;;;;5096338;28;20065;-71
2023/09/21 08:50:13;;;;;;;34.28;6.43;;;26.50;68.40;;;;;;5114472;28;20023;-72
2023/09/21 08:52:44;;;;;;;76.13;10.65;;;26.50;68.10;;;;;;5095829;28;20122;-71
2023/09/21 08:55:11;;;;;;;32.45;6.95;;;26.60;68.20;;;;;;5114415;28;20487;-72
2023/09/21 08:57:38;;;;;;;24.77;5.78;;;26.60;68.00;;;;;;5104147;28;20062;-73
2023/09/21 09:00:06;;;;;;;33.47;6.22;;;26.60;67.70;;;;;;5094634;28;20500;-75
2023/09/21 09:02:35;;;;;;;27.80;6.07;;;26.70;67.70;;;;;;5110003;28;20028;-72
2023/09/21 09:05:08;;;;;;;32.17;5.43;;;26.80;67.50;;;;;;5099964;28;20352;-73
2023/09/21 09:07:40;;;;;;;23.25;5.25;;;26.80;67.30;;;;;;5113193;28;20406;-73
2023/09/21 09:10:10;;;;;;;31.90;5.85;;;26.90;67.40;;;;;;5114008;28;20028;-74
2023/09/21 09:12:37;;;;;;;20.20;5.03;;;26.90;67.10;;;;;;5113359;28;20039;-73
2023/09/21 09:15:05;;;;;;;19.50;4.95;;;27.00;67.20;;;;;;5113742;28;20063;-74
2023/09/21 09:17:31;;;;;;;19.55;4.47;;;27.00;67.10;;;;;;5112059;28;20028;-73
2023/09/21 09:19:58;;;;;;;19.88;5.20;;;27.00;67.10;;;;;;5115970;28;20352;-87
2023/09/21 09:22:24;;;;;;;24.33;4.53;;;27.10;67.60;;;;;;5115680;28;20034;-78
2023/09/21 09:24:52;;;;;;;18.10;4.47;;;27.10;67.60;;;;;;5095053;28;20042;-71
2023/09/21 09:27:19;;;;;;;22.92;5.15;;;27.10;67.70;;;;;;5114501;28;20036;-70
2023/09/21 09:29:52;;;;;;;18.65;4.85;;;27.10;67.90;;;;;;5114391;28;20035;-72
2023/09/21 09:32:22;;;;;;;27.33;5.50;;;27.10;67.40;;;;;;5094105;28;20043;-70
2023/09/21 09:34:48;;;;;;;21.42;4.82;;;27.10;68.10;;;;;;5112539;28;20040;-81
2023/09/21 09:37:15;;;;;;;27.05;5.18;;;27.20;68.00;;;;;;5109967;28;20119;-79
2023/09/21 09:39:44;;;;;;;20.10;4.57;;;27.20;68.10;;;;;;5098468;28;20450;-81
2023/09/21 09:42:13;;;;;;;35.22;20.67;;;27.30;68.10;;;;;;5094951;28;20040;-79
2023/09/21 09:44:48;;;;;;;18.50;5.28;;;27.30;68.00;;;;;;5076147;28;20085;-81
2023/09/21 09:47:18;;;;;;;23.02;5.43;;;27.40;68.00;;;;;;5106310;28;20035;-84
2023/09/21 09:49:49;;;;;;;25.83;4.90;;;27.40;68.00;;;;;;5095212;28;20040;-80
2023/09/21 09:52:18;;;;;;;17.52;4.40;;;27.40;67.70;;;;;;5112662;28;20043;-82
2023/09/21 09:54:48;;;;;;;19.65;5.05;;;27.50;67.50;;;;;;5113414;28;20144;-79
2023/09/21 09:57:16;;;;;;;16.95;4.35;;;27.60;67.10;;;;;;5095163;28;20023;-82
2023/09/21 09:59:44;;;;;;;15.10;3.67;;;27.60;66.70;;;;;;5113596;28;20113;-81
2023/09/21 10:02:14;;;;;;;20.10;4.60;;;27.60;66.60;;;;;;5113386;28;20031;-80
2023/09/21 10:04:40;;;;;;;14.65;4.63;;;27.60;66.80;;;;;;5113314;28;20032;-77
2023/09/21 10:07:06;;;;;;;18.48;5.68;;;27.70;66.80;;;;;;5112377;28;20047;-74
2023/09/21 10:09:32;;;;;;;31.17;6.60;;;27.70;66.50;;;;;;5093397;28;20123;-76
2023/09/21 10:12:03;;;;;;;21.45;4.72;;;27.80;67.10;;;;;;5112350;28;20035;-75
2023/09/21 10:14:34;;;;;;;17.92;4.57;;;27.80;67.40;;;;;;5110897;28;20063;-75
2023/09/21 10:17:04;;;;;;;26.90;4.78;;;27.90;66.70;;;;;;5094194;28;20043;-79
2023/09/21 10:19:36;;;;;;;19.38;4.60;;;27.90;66.00;;;;;;5074649;28;20032;-79
2023/09/21 10:22:28;;;;;;;14.98;3.97;;;28.00;65.60;;;;;;5074096;28;20034;-79
2023/09/21 10:24:59;;;;;;;11.40;4.18;;;28.00;65.50;;;;;;5092934;28;20133;-79
2023/09/21 10:27:28;;;;;;;17.90;4.35;;;28.00;65.10;;;;;;5074120;28;20040;-79
2023/09/21 10:30:08;;;;;;;16.50;4.30;;;28.10;64.60;;;;;;5092725;28;20039;-79
2023/09/21 10:32:49;;;;;;;14.63;3.63;;;28.10;64.10;;;;;;5093176;28;20491;-77
2023/09/21 10:35:33;;;;;;;16.33;4.32;;;28.20;63.40;;;;;;5093260;28;20028;-77
2023/09/21 10:38:12;;;;;;;18.63;4.68;;;28.30;63.30;;;;;;5091496;28;20036;-77
2023/09/21 10:40:40;;;;;;;10.57;3.50;;;28.30;62.50;;;;;;5092758;28;20039;-79
2023/09/21 10:43:37;;;;;;;10.82;3.47;;;28.30;62.50;;;;;;5092619;28;20170;-79
2023/09/21 10:46:23;;;;;;;13.45;3.85;;;28.40;62.40;;;;;;5092435;28;20032;-78
2023/09/21 10:49:08;;;;;;;24.90;11.10;;;28.40;62.30;;;;;;5092048;28;20040;-78
2023/09/21 10:51:39;;;;;;;14.23;5.50;;;28.40;62.20;;;;;;5074675;28;20031;-78
2023/09/21 10:54:10;;;;;;;15.02;4.50;;;28.50;62.20;;;;;;5092528;28;20031;-80
2023/09/21 10:56:37;;;;;;;15.85;4.05;;;28.60;62.10;;;;;;5092691;28;20031;-80
2023/09/21 10:59:03;;;;;;;14.70;4.78;;;28.50;61.90;;;;;;5074446;28;20508;-79
2023/09/21 11:01:30;;;;;;;12.25;3.88;;;28.50;61.80;;;;;;5093302;28;20121;-79
2023/09/21 11:03:56;;;;;;;15.05;3.85;;;28.60;62.00;;;;;;5078995;28;20043;-78
2023/09/21 11:06:21;;;;;;;12.73;3.67;;;28.70;61.50;;;;;;5094208;28;20543;-79
2023/09/21 11:08:48;;;;;;;14.82;4.22;;;28.70;61.50;;;;;;5092295;28;20188;-80
2023/09/21 11:11:19;;;;;;;13.48;4.28;;;28.70;61.10;;;;;;5092493;28;20032;-77
2023/09/21 11:13:52;;;;;;;17.63;3.75;;;28.70;61.00;;;;;;5092490;28;20036;-77
2023/09/21 11:16:18;;;;;;;13.95;3.13;;;28.70;60.10;;;;;;5092790;28;20043;-79
2023/09/21 11:18:45;;;;;;;12.65;3.25;;;28.70;59.90;;;;;;5092591;28;20028;-79
2023/09/21 11:21:13;;;;;;;13.82;3.42;;;28.70;59.30;;;;;;5074168;28;20051;-77
2023/09/21 11:23:43;;;;;;;15.32;2.97;;;28.70;59.00;;;;;;5092234;28;20036;-79
2023/09/21 11:26:14;;;;;;;19.55;3.45;;;28.70;58.90;;;;;;5092527;28;20040;-79
2023/09/21 11:28:41;;;;;;;16.30;3.83;;;28.80;58.70;;;;;;5099077;28;20037;-79
2023/09/21 11:31:10;;;;;;;14.38;4.05;;;28.80;58.60;;;;;;5087169;28;20056;-80
2023/09/21 11:33:36;;;;;;;17.38;4.32;;;28.80;58.50;;;;;;5108023;28;20044;-78
2023/09/21 11:36:06;;;;;;;14.18;3.53;;;28.90;58.50;;;;;;5099157;28;20530;-80
2023/09/21 11:38:34;;;;;;;16.20;4.05;;;29.00;58.80;;;;;;5092608;28;20031;-81
2023/09/21 11:41:00;;;;;;;14.02;4.32;;;29.00;58.50;;;;;;5092492;28;20036;-79
2023/09/21 11:43:26;;;;;;;15.15;3.78;;;29.00;58.30;;;;;;5092610;28;20044;-79
2023/09/21 11:45:55;;;;;;;17.05;3.25;;;29.10;58.30;;;;;;5092230;28;20476;-80
2023/09/21 11:48:24;;;;;;;17.05;3.95;;;29.20;57.90;;;;;;5093493;28;20028;-79
2023/09/21 11:50:50;;;;;;;10.88;3.83;;;29.20;57.20;;;;;;5095978;28;20486;-79
2023/09/21 11:53:19;;;;;;;14.85;4.15;;;29.20;56.90;;;;;;5096093;28;20407;-79
2023/09/21 11:55:46;;;;;;;12.02;3.92;;;29.20;56.70;;;;;;5095869;28;20492;-80
2023/09/21 11:58:15;;;;;;;11.40;3.25;;;29.30;56.30;;;;;;5096039;28;20066;-79
2023/09/21 12:01:34;;;;;;;19.27;3.70;;;29.30;56.00;;;;;;5096063;28;20039;-79
2023/09/21 12:03:38;;;;;;;12.13;3.42;;;29.30;55.50;;;;;;5084640;28;20039;-78
2023/09/21 12:06:04;;;;;;;12.88;3.50;;;29.40;55.00;;;;;;5095364;28;20032;-79
2023/09/21 12:08:31;;;;;;;16.25;3.80;;;29.30;54.80;;;;;;5095612;28;20475;-79
2023/09/21 12:10:57;;;;;;;14.25;3.25;;;29.30;55.50;;;;;;5095634;28;20039;-78
2023/09/21 12:13:23;;;;;;;14.30;3.58;;;29.30;55.00;;;;;;5095304;28;20419;-79
2023/09/21 12:15:55;;;;;;;16.33;3.70;;;29.30;54.90;;;;;;5077205;28;20048;-80
2023/09/21 12:18:22;;;;;;;13.02;3.33;;;29.30;55.00;;;;;;5095552;28;20391;-78
2023/09/21 12:20:56;;;;;;;11.63;3.55;;;29.20;55.30;;;;;;5095533;28;20114;-79
2023/09/21 12:23:23;;;;;;;15.73;3.53;;;29.30;55.30;;;;;;5095675;28;20024;-80
2023/09/21 12:25:48;;;;;;;13.93;3.72;;;29.30;55.40;;;;;;5095566;28;20032;-78
2023/09/21 12:28:14;;;;;;;14.90;3.67;;;29.30;55.30;;;;;;5095393;28;20240;-79
2023/09/21 12:30:42;;;;;;;10.82;3.13;;;29.40;55.30;;;;;;5095538;28;20036;-78
2023/09/21 12:33:08;;;;;;;17.40;4.03;;;29.40;55.00;;;;;;5095346;28;20109;-79
2023/09/21 12:35:35;;;;;;;12.57;3.40;;;29.50;54.70;;;;;;5094752;28;20052;-77
2023/09/21 12:38:01;;;;;;;15.20;3.88;;;29.50;54.80;;;;;;5094863;28;20025;-79
2023/09/21 12:40:27;;;;;;;14.43;3.20;;;29.40;54.60;;;;;;5094892;28;20032;-78